Time;durP1;ratioP1;P1;durP2;ratioP2;P2;SDS_P1;SDS_P2;PMS_P1;PMS_P2;Temp;Humidity;BMP_temperature;BMP_pressure;BME280_temperature;BME280_humidity;BME280_pressure;Samples;Min_cycle;Max_cycle;Signal;HPM_P1;HPM_P2
2023/09/25 00:00:35;;;;;;;7.87;4.20;;;11.50;99.90;;;;;;5050993;28;20193;-67
2023/09/25 00:03:03;;;;;;;6.33;4.53;;;11.50;99.90;;;;;;5051302;28;20188;-67
2023/09/25 00:05:29;;;;;;;4.60;3.60;;;11.40;99.90;;;;;;5052013;28;20197;-68
2023/09/25 00:07:55;;;;;;;5.40;3.37;;;11.40;99.90;;;;;;5046848;28;20435;-68
2023/09/25 00:10:21;;;;;;;7.07;3.87;;;11.30;99.90;;;;;;5053682;28;20467;-67
2023/09/25 00:12:47;;;;;;;4.60;4.13;;;11.30;99.90;;;;;;5055781;28;20189;-67
2023/09/25 00:15:13;;;;;;;5.77;4.20;;;11.20;99.90;;;;;;5062519;28;20531;-67
2023/09/25 00:17:40;;;;;;;3.43;2.97;;;11.20;99.90;;;;;;5058167;28;20435;-67
2023/09/25 00:20:10;;;;;;;4.27;3.53;;;11.20;99.90;;;;;;5064535;28;20160;-67
2023/09/25 00:22:42;;;;;;;4.03;3.60;;;11.10;99.90;;;;;;5061850;28;20420;-67
2023/09/25 00:25:08;;;;;;;4.20;3.43;;;11.10;99.90;;;;;;5051666;28;20784;-67
2023/09/25 00:27:34;;;;;;;4.80;3.50;;;11.00;99.90;;;;;;5050609;28;20448;-67
2023/09/25 00:30:03;;;;;;;4.53;3.70;;;11.00;99.90;;;;;;5046973;28;20467;-67
2023/09/25 00:32:28;;;;;;;3.83;3.53;;;11.00;99.90;;;;;;5050676;28;20446;-67
2023/09/25 00:34:54;;;;;;;4.20;3.80;;;10.90;99.90;;;;;;5055491;28;20432;-67
2023/09/25 00:37:21;;;;;;;5.33;3.60;;;10.70;99.90;;;;;;5055128;28;20651;-67
2023/09/25 00:39:47;;;;;;;3.80;3.50;;;10.70;99.90;;;;;;5059614;28;20549;-67
2023/09/25 00:42:12;;;;;;;4.10;3.70;;;10.70;99.90;;;;;;5066036;28;20439;-67
2023/09/25 00:44:37;;;;;;;5.67;4.27;;;10.70;99.90;;;;;;5049222;28;20663;-67
2023/09/25 00:47:04;;;;;;;4.53;3.60;;;10.60;99.90;;;;;;5050975;28;20215;-67
2023/09/25 00:49:31;;;;;;;4.20;3.80;;;10.60;99.90;;;;;;5058755;28;20304;-67
2023/09/25 00:51:57;;;;;;;3.70;3.40;;;10.50;99.90;;;;;;5066662;28;20470;-67
2023/09/25 00:54:23;;;;;;;4.80;3.30;;;10.50;99.90;;;;;;5049798;28;20992;-67
2023/09/25 00:56:50;;;;;;;10.53;4.37;;;10.40;99.90;;;;;;5057779;28;20463;-67
2023/09/25 00:59:16;;;;;;;3.73;3.33;;;10.40;99.90;;;;;;5061319;28;20436;-67
2023/09/25 01:01:42;;;;;;;4.87;4.20;;;10.40;99.90;;;;;;5049318;28;20451;-68
2023/09/25 01:04:08;;;;;;;5.70;3.60;;;10.40;99.90;;;;;;5048533;28;20979;-67
2023/09/25 01:06:34;;;;;;;4.50;4.03;;;10.30;99.90;;;;;;5051982;28;20246;-67
2023/09/25 01:09:00;;;;;;;5.13;4.63;;;10.30;99.90;;;;;;5054219;28;20460;-67
2023/09/25 01:11:25;;;;;;;5.97;4.30;;;10.20;99.90;;;;;;5051693;28;20464;-67
2023/09/25 01:13:51;;;;;;;5.90;3.60;;;10.20;99.90;;;;;;5049191;28;20655;-67
2023/09/25 01:16:18;;;;;;;4.20;3.80;;;10.10;99.90;;;;;;5051115;28;20170;-67
2023/09/25 01:18:44;;;;;;;5.40;4.90;;;10.10;99.90;;;;;;5050874;28;20514;-67
2023/09/25 01:21:09;;;;;;;5.40;3.70;;;10.10;99.90;;;;;;5051710;28;20447;-67
2023/09/25 01:23:34;;;;;;;4.37;3.80;;;10.10;99.90;;;;;;5061699;28;20543;-67
2023/09/25 01:26:01;;;;;;;3.87;3.53;;;10.00;99.90;;;;;;5056397;28;20273;-67
2023/09/25 01:28:26;;;;;;;3.80;3.37;;;10.00;99.90;;;;;;5057281;28;20185;-67
2023/09/25 01:30:54;;;;;;;4.33;3.80;;;10.00;99.90;;;;;;5049790;28;20459;-67
2023/09/25 01:33:19;;;;;;;4.27;3.87;;;9.90;99.90;;;;;;5049817;28;20256;-67
2023/09/25 01:35:45;;;;;;;4.70;4.30;;;9.90;99.90;;;;;;5048616;28;20527;-67
2023/09/25 01:38:10;;;;;;;3.53;3.20;;;9.90;99.90;;;;;;5049540;28;20596;-67
2023/09/25 01:40:36;;;;;;;3.93;3.63;;;9.80;99.90;;;;;;5050613;28;20213;-67
2023/09/25 01:43:02;;;;;;;3.60;3.27;;;9.70;99.90;;;;;;5048864;28;20236;-67
2023/09/25 01:45:28;;;;;;;3.97;3.60;;;9.70;99.90;;;;;;5046929;28;20219;-67
2023/09/25 01:47:54;;;;;;;3.90;3.50;;;9.60;99.90;;;;;;5052626;28;20459;-67
2023/09/25 01:50:22;;;;;;;4.50;4.00;;;9.60;99.90;;;;;;5053529;28;20271;-67
2023/09/25 01:52:53;;;;;;;4.73;3.93;;;9.60;99.90;;;;;;5049608;28;20227;-67
2023/09/25 01:55:19;;;;;;;4.13;3.67;;;9.60;99.90;;;;;;5046635;28;20436;-67
2023/09/25 01:57:44;;;;;;;4.77;3.57;;;9.60;99.90;;;;;;5048193;28;20455;-67
2023/09/25 02:00:10;;;;;;;4.17;3.80;;;9.50;99.90;;;;;;5049256;28;20497;-67
2023/09/25 02:02:37;;;;;;;7.23;4.10;;;9.60;99.90;;;;;;5050349;28;20189;-67
2023/09/25 02:05:03;;;;;;;4.27;3.80;;;9.50;99.90;;;;;;5048856;28;20800;-67
2023/09/25 02:07:28;;;;;;;3.63;3.33;;;9.50;99.90;;;;;;5053999;28;20439;-67
2023/09/25 02:09:54;;;;;;;4.53;4.13;;;9.50;99.90;;;;;;5055075;28;20831;-66
2023/09/25 02:12:19;;;;;;;5.10;3.40;;;9.50;99.90;;;;;;5050934;28;20216;-66
2023/09/25 02:14:45;;;;;;;4.70;4.20;;;9.50;99.90;;;;;;5050339;28;20185;-67
2023/09/25 02:17:11;;;;;;;3.83;3.53;;;9.40;99.90;;;;;;5050423;28;20181;-67
2023/09/25 02:19:36;;;;;;;4.77;3.50;;;9.40;99.90;;;;;;5060376;28;20193;-67
2023/09/25 02:22:06;;;;;;;5.37;3.77;;;9.50;99.90;;;;;;5056285;28;20205;-67
2023/09/25 02:24:35;;;;;;;3.60;3.30;;;9.50;99.90;;;;;;5052207;28;20212;-67
2023/09/25 02:27:00;;;;;;;6.10;4.00;;;9.60;99.90;;;;;;5044795;28;20440;-67
2023/09/25 02:29:26;;;;;;;5.43;3.23;;;9.60;99.90;;;;;;5052217;28;20517;-67
2023/09/25 02:31:51;;;;;;;5.20;3.50;;;9.50;99.90;;;;;;5050574;28;20193;-67
2023/09/25 02:34:17;;;;;;;3.83;3.43;;;9.40;99.90;;;;;;5048936;28;20178;-67
2023/09/25 02:36:42;;;;;;;4.20;3.80;;;9.50;99.90;;;;;;5054068;28;20213;-66
2023/09/25 02:39:11;;;;;;;4.93;4.00;;;9.50;99.90;;;;;;5058453;28;20265;-67
2023/09/25 02:41:37;;;;;;;5.60;4.27;;;9.40;99.90;;;;;;5048779;28;20671;-67
2023/09/25 02:44:02;;;;;;;4.53;4.13;;;9.40;99.90;;;;;;5048061;28;20514;-67
2023/09/25 02:46:28;;;;;;;4.00;3.60;;;9.30;99.90;;;;;;5048828;28;20177;-67
2023/09/25 02:48:53;;;;;;;5.17;4.33;;;9.30;99.90;;;;;;5058192;28;20635;-66
2023/09/25 02:51:19;;;;;;;4.70;3.30;;;9.20;99.90;;;;;;5053724;28;20557;-67
2023/09/25 02:53:44;;;;;;;4.20;3.77;;;9.20;99.90;;;;;;5051541;28;20178;-67
2023/09/25 02:56:11;;;;;;;4.20;3.80;;;9.20;99.90;;;;;;5045004;28;20184;-67
2023/09/25 02:58:37;;;;;;;5.07;3.60;;;9.20;99.90;;;;;;5054841;28;20252;-67
2023/09/25 03:01:02;;;;;;;3.73;3.20;;;9.20;99.90;;;;;;5052995;28;20555;-67
2023/09/25 03:03:29;;;;;;;5.10;3.90;;;9.10;99.90;;;;;;5053521;28;20196;-66
2023/09/25 03:05:54;;;;;;;3.80;2.90;;;9.20;99.90;;;;;;5054018;28;20190;-67
2023/09/25 03:08:20;;;;;;;4.30;3.87;;;9.10;99.90;;;;;;5054293;28;20481;-67
2023/09/25 03:10:46;;;;;;;4.40;3.37;;;9.10;99.90;;;;;;5057435;28;21734;-67
2023/09/25 03:13:11;;;;;;;3.67;3.37;;;9.10;99.90;;;;;;5050044;28;20185;-67
2023/09/25 03:15:37;;;;;;;3.90;3.50;;;9.00;99.90;;;;;;5052564;28;20184;-66
2023/09/25 03:18:02;;;;;;;5.50;4.03;;;9.10;99.90;;;;;;5066790;28;20181;-67
2023/09/25 03:20:28;;;;;;;5.63;4.17;;;9.00;99.90;;;;;;5060579;28;20565;-67
2023/09/25 03:22:54;;;;;;;4.47;3.90;;;9.00;99.90;;;;;;5053900;28;20176;-67
2023/09/25 03:25:20;;;;;;;4.00;3.50;;;8.90;99.90;;;;;;5052611;28;20187;-67
2023/09/25 03:27:46;;;;;;;5.43;3.80;;;8.90;99.90;;;;;;5050995;28;20444;-67
2023/09/25 03:30:13;;;;;;;4.80;3.70;;;9.00;99.90;;;;;;5058879;28;20201;-66
2023/09/25 03:32:38;;;;;;;3.67;3.20;;;9.10;99.90;;;;;;5053464;28;20426;-68
2023/09/25 03:35:04;;;;;;;4.23;3.40;;;9.00;99.90;;;;;;5057784;28;20519;-69
2023/09/25 03:37:30;;;;;;;3.50;3.20;;;9.00;99.90;;;;;;5059977;28;20173;-69
2023/09/25 03:39:56;;;;;;;3.70;3.23;;;9.00;99.90;;;;;;5061400;28;20522;-69
2023/09/25 03:42:21;;;;;;;5.27;3.63;;;9.00;99.90;;;;;;5058233;28;20251;-69
2023/09/25 03:44:47;;;;;;;3.77;3.50;;;8.90;99.90;;;;;;5055343;28;20856;-69
2023/09/25 03:47:13;;;;;;;4.17;3.30;;;8.90;99.90;;;;;;5053354;28;20643;-69
2023/09/25 03:49:39;;;;;;;4.10;3.60;;;8.90;99.90;;;;;;5065731;28;20645;-68
2023/09/25 03:52:05;;;;;;;4.23;3.50;;;8.90;99.90;;;;;;5068662;28;20470;-69
2023/09/25 03:54:30;;;;;;;3.97;3.60;;;8.90;99.90;;;;;;5067233;28;20459;-68
2023/09/25 03:56:56;;;;;;;3.90;3.47;;;8.80;99.90;;;;;;5054950;28;20216;-69
2023/09/25 03:59:22;;;;;;;4.10;3.70;;;8.80;99.90;;;;;;5053772;28;20217;-69
2023/09/25 04:01:48;;;;;;;4.27;3.20;;;8.80;99.90;;;;;;5057900;28;20233;-69
2023/09/25 04:04:13;;;;;;;3.80;3.30;;;8.80;99.90;;;;;;5058854;28;20189;-68
2023/09/25 04:06:39;;;;;;;4.53;3.43;;;8.70;99.90;;;;;;5053240;28;20181;-69
2023/09/25 04:09:07;;;;;;;3.47;3.17;;;8.80;99.90;;;;;;5063862;28;20200;-69
2023/09/25 04:11:33;;;;;;;4.77;4.13;;;8.70;99.90;;;;;;5064605;28;20215;-69
2023/09/25 04:14:00;;;;;;;4.23;3.83;;;8.70;99.90;;;;;;5064400;28;20432;-69
2023/09/25 04:16:28;;;;;;;3.83;3.50;;;8.70;99.90;;;;;;5052881;28;20484;-69
2023/09/25 04:18:58;;;;;;;4.50;4.10;;;8.70;99.90;;;;;;5051149;28;20450;-69
2023/09/25 04:21:24;;;;;;;4.23;3.60;;;8.70;99.90;;;;;;5059662;28;20451;-69
2023/09/25 04:23:49;;;;;;;4.10;3.50;;;8.70;99.90;;;;;;5057824;28;20885;-69
2023/09/25 04:26:14;;;;;;;3.87;3.50;;;8.60;99.90;;;;;;5051987;28;20639;-69
2023/09/25 04:28:40;;;;;;;3.47;3.17;;;8.60;99.90;;;;;;5067595;28;20243;-69
2023/09/25 04:31:06;;;;;;;4.37;3.27;;;8.60;99.90;;;;;;5049908;28;20217;-69
2023/09/25 04:33:33;;;;;;;5.03;3.47;;;8.70;99.90;;;;;;5052330;28;20177;-68
2023/09/25 04:35:59;;;;;;;3.37;3.07;;;8.70;99.90;;;;;;5050977;28;20448;-68
2023/09/25 04:38:26;;;;;;;4.50;3.70;;;8.60;99.90;;;;;;5060665;28;20419;-68
2023/09/25 04:40:51;;;;;;;3.97;3.50;;;8.60;99.90;;;;;;5052463;28;20476;-68
2023/09/25 04:43:18;;;;;;;3.37;3.07;;;8.60;99.90;;;;;;5052424;28;20466;-68
2023/09/25 04:45:45;;;;;;;6.30;4.20;;;8.50;99.90;;;;;;5051938;28;20192;-68
2023/09/25 04:48:10;;;;;;;3.90;3.33;;;8.50;99.90;;;;;;5052397;28;20493;-68
2023/09/25 04:50:37;;;;;;;8.50;3.30;;;8.60;99.90;;;;;;5050354;28;20475;-68
2023/09/25 04:53:03;;;;;;;4.53;3.93;;;8.60;99.90;;;;;;5063708;28;20169;-68
2023/09/25 04:55:28;;;;;;;3.80;3.50;;;8.60;99.90;;;;;;5055747;28;20439;-68
2023/09/25 04:57:54;;;;;;;3.20;3.00;;;8.60;99.90;;;;;;5058613;28;20854;-68
2023/09/25 05:00:22;;;;;;;8.57;3.40;;;8.50;99.90;;;;;;5055322;28;20215;-68
2023/09/25 05:02:49;;;;;;;3.50;3.20;;;8.50;99.90;;;;;;5051720;28;20607;-68
2023/09/25 05:05:15;;;;;;;5.83;4.10;;;8.60;99.90;;;;;;5053026;28;20469;-68
2023/09/25 05:07:47;;;;;;;3.90;3.50;;;8.60;99.90;;;;;;5051764;28;20787;-68
2023/09/25 05:10:15;;;;;;;5.80;4.17;;;8.60;99.90;;;;;;5052147;28;20455;-68
2023/09/25 05:12:42;;;;;;;4.80;3.83;;;8.60;99.90;;;;;;5057767;28;20848;-68
2023/09/25 05:15:08;;;;;;;3.67;3.37;;;8.60;99.90;;;;;;5058595;28;20458;-68
2023/09/25 05:17:44;;;;;;;3.73;3.33;;;8.70;99.90;;;;;;5057454;28;20448;-68
2023/09/25 05:20:11;;;;;;;4.13;3.27;;;8.70;99.90;;;;;;5063191;28;20975;-68
2023/09/25 05:22:42;;;;;;;4.80;4.13;;;8.60;99.90;;;;;;5052479;28;20519;-68
2023/09/25 05:25:09;;;;;;;6.87;3.90;;;8.60;99.90;;;;;;5059617;28;20467;-67
2023/09/25 05:27:39;;;;;;;4.53;4.13;;;8.60;99.90;;;;;;5068147;28;20430;-68
2023/09/25 05:30:09;;;;;;;6.77;6.00;;;8.60;99.90;;;;;;5056159;28;21012;-68
2023/09/25 05:32:36;;;;;;;7.30;4.80;;;8.60;99.90;;;;;;5051773;28;20416;-68
2023/09/25 05:35:01;;;;;;;4.80;3.83;;;8.60;99.90;;;;;;5050828;28;20848;-68
2023/09/25 05:37:27;;;;;;;5.70;4.37;;;8.60;99.90;;;;;;5055944;28;20438;-68
2023/09/25 05:39:53;;;;;;;6.10;4.50;;;8.70;99.90;;;;;;5051627;28;20181;-67
2023/09/25 05:42:18;;;;;;;5.33;3.70;;;8.80;99.90;;;;;;5051191;28;20193;-68
2023/09/25 05:44:43;;;;;;;4.20;3.80;;;8.80;99.90;;;;;;5068624;28;20539;-67
2023/09/25 05:47:09;;;;;;;5.77;3.77;;;8.80;99.90;;;;;;5054016;28;20174;-68
2023/09/25 05:49:35;;;;;;;7.83;4.73;;;8.90;99.90;;;;;;5060468;28;20204;-68
2023/09/25 05:52:00;;;;;;;4.90;3.93;;;9.00;99.90;;;;;;5057329;28;20686;-68
2023/09/25 05:54:26;;;;;;;6.17;5.10;;;9.20;99.90;;;;;;5059490;28;20252;-68
2023/09/25 05:56:51;;;;;;;5.17;4.73;;;9.40;99.90;;;;;;5050234;28;20180;-68
2023/09/25 05:59:17;;;;;;;4.30;3.90;;;9.60;99.90;;;;;;5050148;28;20187;-68
2023/09/25 06:01:43;;;;;;;4.70;4.30;;;9.80;99.90;;;;;;5057596;28;20245;-68
2023/09/25 06:04:09;;;;;;;6.37;4.80;;;9.90;99.90;;;;;;5059783;28;20186;-68
2023/09/25 06:06:35;;;;;;;6.00;4.80;;;10.10;99.90;;;;;;5053688;28;20581;-67
2023/09/25 06:09:02;;;;;;;5.27;4.57;;;10.20;99.90;;;;;;5049606;28;20440;-67
2023/09/25 06:11:27;;;;;;;5.57;5.03;;;10.40;99.90;;;;;;5061502;28;20799;-67
2023/09/25 06:13:53;;;;;;;5.93;3.90;;;10.60;99.90;;;;;;5046409;28;20494;-67
2023/09/25 06:16:19;;;;;;;4.70;4.20;;;10.70;99.90;;;;;;5049835;28;20189;-67
2023/09/25 06:18:45;;;;;;;4.80;4.40;;;10.90;99.90;;;;;;5061937;28;20178;-67
2023/09/25 06:21:13;;;;;;;6.07;5.37;;;11.10;99.90;;;;;;5062440;28;20198;-67
2023/09/25 06:23:39;;;;;;;4.87;4.40;;;11.30;99.90;;;;;;5050992;28;20178;-67
2023/09/25 06:26:06;;;;;;;5.73;4.80;;;11.60;99.90;;;;;;5054231;28;20463;-67
2023/09/25 06:28:32;;;;;;;5.23;4.73;;;11.70;99.90;;;;;;5063158;28;20430;-67
2023/09/25 06:30:58;;;;;;;6.77;4.13;;;11.90;99.90;;;;;;5054477;28;20470;-67
2023/09/25 06:33:24;;;;;;;5.03;4.43;;;12.00;99.90;;;;;;5050184;28;20432;-67
2023/09/25 06:35:49;;;;;;;7.10;4.67;;;12.20;99.90;;;;;;5049026;28;20204;-67
2023/09/25 06:38:16;;;;;;;4.03;3.60;;;12.30;99.90;;;;;;5054754;28;20200;-67
2023/09/25 06:40:45;;;;;;;5.30;4.40;;;12.30;99.90;;;;;;5053981;28;20284;-67
2023/09/25 06:43:12;;;;;;;5.60;4.83;;;12.50;99.90;;;;;;5055215;28;20432;-67
2023/09/25 06:45:38;;;;;;;8.03;5.30;;;12.60;99.90;;;;;;5054844;28;20431;-67
2023/09/25 06:48:04;;;;;;;7.70;6.13;;;12.80;99.90;;;;;;5048074;28;20439;-67
2023/09/25 06:50:30;;;;;;;4.80;4.30;;;13.00;99.90;;;;;;5049477;28;20468;-67
2023/09/25 06:52:56;;;;;;;6.17;5.60;;;13.30;99.90;;;;;;5052142;28;20432;-67
2023/09/25 06:55:22;;;;;;;7.30;4.33;;;13.70;99.90;;;;;;5055510;28;20766;-68
2023/09/25 06:57:47;;;;;;;5.77;5.17;;;13.80;99.90;;;;;;5054391;28;20424;-68
2023/09/25 07:00:14;;;;;;;6.70;5.13;;;14.00;99.90;;;;;;5054519;28;20177;-67
2023/09/25 07:02:40;;;;;;;7.33;4.90;;;14.20;99.90;;;;;;5054284;28;20181;-67
2023/09/25 07:05:06;;;;;;;6.93;4.60;;;14.40;99.90;;;;;;5053389;28;20440;-67
2023/09/25 07:07:32;;;;;;;8.00;5.67;;;14.60;99.90;;;;;;5051306;28;20432;-67
2023/09/25 07:09:57;;;;;;;5.20;4.70;;;14.80;99.90;;;;;;5048468;28;20231;-67
2023/09/25 07:12:23;;;;;;;5.47;4.17;;;15.00;99.90;;;;;;5049930;28;20197;-67
2023/09/25 07:14:52;;;;;;;5.13;4.40;;;15.30;99.90;;;;;;5054051;28;20224;-67
2023/09/25 07:17:17;;;;;;;10.07;4.70;;;15.50;99.90;;;;;;5054380;28;20949;-67
2023/09/25 07:19:43;;;;;;;6.80;4.50;;;15.70;99.90;;;;;;5053023;28;20486;-67
2023/09/25 07:22:08;;;;;;;6.80;4.53;;;15.90;99.90;;;;;;5053828;28;20675;-67
2023/09/25 07:24:34;;;;;;;4.37;3.97;;;16.20;99.90;;;;;;5053682;28;20184;-67
2023/09/25 07:26:59;;;;;;;6.83;4.93;;;16.40;99.90;;;;;;5053848;28;20176;-68
2023/09/25 07:29:25;;;;;;;5.30;4.80;;;16.50;99.90;;;;;;5053953;28;20197;-68
2023/09/25 07:31:51;;;;;;;7.47;4.00;;;16.70;99.90;;;;;;5054101;28;20196;-68
2023/09/25 07:34:16;;;;;;;4.10;3.70;;;16.90;99.90;;;;;;5052254;28;20289;-68
2023/09/25 07:36:42;;;;;;;4.47;4.07;;;17.10;99.90;;;;;;5052497;28;20213;-68
2023/09/25 07:39:13;;;;;;;3.97;3.50;;;17.40;99.90;;;;;;5053508;28;20252;-67
2023/09/25 07:41:40;;;;;;;17.57;12.80;;;17.50;99.90;;;;;;5053537;28;20597;-68
2023/09/25 07:44:11;;;;;;;5.40;4.90;;;17.60;99.90;;;;;;5053409;28;20412;-68
2023/09/25 07:46:37;;;;;;;5.00;4.03;;;17.40;99.90;;;;;;5053706;28;20408;-67
2023/09/25 07:49:03;;;;;;;3.63;3.33;;;17.70;99.90;;;;;;5053485;28;20427;-67
2023/09/25 07:51:29;;;;;;;10.33;3.97;;;18.00;99.90;;;;;;5052175;28;20205;-68
2023/09/25 07:53:58;;;;;;;5.53;3.60;;;18.20;99.90;;;;;;5052909;28;20639;-68
2023/09/25 07:56:27;;;;;;;4.53;3.00;;;18.60;99.90;;;;;;5052884;28;20447;-68
2023/09/25 07:58:55;;;;;;;3.27;3.07;;;18.90;99.90;;;;;;5053037;28;20499;-68
2023/09/25 08:01:22;;;;;;;4.13;3.73;;;19.20;99.90;;;;;;5053089;28;20436;-68
2023/09/25 08:03:51;;;;;;;4.33;3.93;;;19.40;99.90;;;;;;5052921;28;20420;-68
2023/09/25 08:06:19;;;;;;;3.77;3.40;;;19.10;99.90;;;;;;5053100;28;20412;-68
2023/09/25 08:08:45;;;;;;;4.33;3.93;;;19.10;99.90;;;;;;5051994;28;20796;-65
2023/09/25 08:11:10;;;;;;;6.00;4.60;;;19.10;99.90;;;;;;5052663;28;20479;-68
2023/09/25 08:13:36;;;;;;;5.27;3.60;;;19.40;99.90;;;;;;5052898;28;20418;-68
2023/09/25 08:16:05;;;;;;;5.30;3.17;;;19.60;99.90;;;;;;5053343;28;20201;-68
2023/09/25 08:18:31;;;;;;;5.47;3.70;;;19.90;99.90;;;;;;5053053;28;20170;-69
2023/09/25 08:20:56;;;;;;;4.10;3.23;;;20.20;99.90;;;;;;5052697;28;20514;-68
2023/09/25 08:23:22;;;;;;;7.97;4.07;;;20.50;99.90;;;;;;5052699;28;20173;-68
2023/09/25 08:25:48;;;;;;;5.77;3.93;;;20.90;99.90;;;;;;5051665;28;20186;-68
2023/09/25 08:28:14;;;;;;;5.00;3.23;;;21.30;99.90;;;;;;5052731;28;20216;-65
2023/09/25 08:30:40;;;;;;;3.13;2.90;;;21.70;99.90;;;;;;5051425;28;20468;-65
2023/09/25 08:33:06;;;;;;;4.00;3.33;;;22.30;99.90;;;;;;5052331;28;20420;-65
2023/09/25 08:35:31;;;;;;;4.33;3.20;;;22.70;99.90;;;;;;5052523;28;20940;-65
2023/09/25 08:37:57;;;;;;;6.23;3.80;;;23.10;99.90;;;;;;5052685;28;20177;-66
2023/09/25 08:40:22;;;;;;;5.70;2.80;;;23.50;99.90;;;;;;5052501;28;20193;-66
2023/09/25 08:42:51;;;;;;;4.80;2.90;;;23.90;99.90;;;;;;5050359;28;20688;-66
2023/09/25 08:45:18;;;;;;;4.60;4.10;;;24.50;98.20;;;;;;5051967;28;20423;-66
2023/09/25 08:47:45;;;;;;;5.13;4.43;;;25.40;95.80;;;;;;5052473;28;20506;-65
2023/09/25 08:50:12;;;;;;;5.03;3.37;;;26.00;92.80;;;;;;5052033;28;20451;-66
2023/09/25 08:52:38;;;;;;;4.70;3.60;;;26.20;91.50;;;;;;5052132;28;20412;-66
2023/09/25 08:55:06;;;;;;;3.97;2.97;;;26.30;90.00;;;;;;5052172;28;20420;-66
2023/09/25 08:57:32;;;;;;;3.23;2.93;;;26.50;87.90;;;;;;5052072;28;20413;-66
2023/09/25 09:00:11;;;;;;;5.37;4.13;;;27.20;84.90;;;;;;5051145;28;20479;-65
2023/09/25 09:02:43;;;;;;;3.57;3.27;;;27.70;81.70;;;;;;5050602;28;20930;-66
2023/09/25 09:05:11;;;;;;;3.73;3.43;;;27.90;79.60;;;;;;5052114;28;20458;-66
2023/09/25 09:07:39;;;;;;;3.77;3.30;;;28.10;78.50;;;;;;5052270;28;20424;-66
2023/09/25 09:10:06;;;;;;;3.17;2.87;;;28.40;77.20;;;;;;5051956;28;20456;-67
2023/09/25 09:12:36;;;;;;;3.57;2.80;;;29.00;74.50;;;;;;5051707;28;20501;-66
2023/09/25 09:15:02;;;;;;;3.50;3.20;;;29.40;72.80;;;;;;5052019;28;20412;-66
2023/09/25 09:17:29;;;;;;;3.27;2.97;;;29.50;70.40;;;;;;5050657;28;20442;-66
2023/09/25 09:19:55;;;;;;;3.63;2.97;;;30.10;68.40;;;;;;5051731;28;20534;-66
2023/09/25 09:22:21;;;;;;;3.90;3.50;;;30.70;65.30;;;;;;5051840;28;20913;-66
2023/09/25 09:24:49;;;;;;;4.50;3.90;;;31.60;62.40;;;;;;5051685;28;20416;-66
2023/09/25 09:27:20;;;;;;;5.13;4.37;;;31.80;59.50;;;;;;5051765;28;20827;-66
2023/09/25 09:29:46;;;;;;;3.90;3.50;;;32.60;58.40;;;;;;5052108;28;20447;-66
2023/09/25 09:32:14;;;;;;;5.43;3.50;;;33.40;57.60;;;;;;5051896;28;20440;-66
2023/09/25 09:34:40;;;;;;;4.63;4.00;;;33.00;56.10;;;;;;5048945;28;20446;-66
2023/09/25 09:37:13;;;;;;;4.43;2.93;;;32.90;55.60;;;;;;5048324;28;20521;-66
2023/09/25 09:39:45;;;;;;;3.73;3.10;;;32.70;55.10;;;;;;5049278;28;20419;-66
2023/09/25 09:42:11;;;;;;;3.40;3.20;;;32.70;54.50;;;;;;5050675;28;20976;-66
2023/09/25 09:44:37;;;;;;;3.60;3.30;;;33.30;53.80;;;;;;5044616;28;20441;-66
2023/09/25 09:47:07;;;;;;;4.40;3.53;;;31.10;53.90;;;;;;5051462;28;20431;-66
2023/09/25 09:49:39;;;;;;;6.27;3.27;;;29.90;55.80;;;;;;5051325;28;20738;-66
2023/09/25 09:52:05;;;;;;;4.30;3.90;;;31.60;55.30;;;;;;5049502;28;20459;-65
2023/09/25 09:54:36;;;;;;;3.07;2.87;;;32.90;53.80;;;;;;5050977;28;20935;-66
2023/09/25 09:57:02;;;;;;;3.30;3.00;;;34.10;52.70;;;;;;5051363;28;20443;-66
2023/09/25 09:59:28;;;;;;;2.93;2.40;;;35.20;51.60;;;;;;5055314;28;20419;-66
2023/09/25 10:01:56;;;;;;;3.87;3.53;;;36.10;50.70;;;;;;5055399;28;20438;-66
2023/09/25 10:04:22;;;;;;;4.53;3.53;;;36.70;49.80;;;;;;5055136;28;20575;-66
2023/09/25 10:06:53;;;;;;;3.10;2.80;;;37.10;48.50;;;;;;5055494;28;20469;-66
2023/09/25 10:09:19;;;;;;;4.27;3.90;;;37.40;47.90;;;;;;5053872;28;20748;-66
2023/09/25 10:11:48;;;;;;;3.77;3.47;;;37.10;47.40;;;;;;5054951;28;20479;-66
2023/09/25 10:14:21;;;;;;;3.70;2.97;;;36.50;47.30;;;;;;5055041;28;20423;-66
2023/09/25 10:17:00;;;;;;;3.93;3.63;;;35.90;47.90;;;;;;5055272;28;20431;-66
2023/09/25 10:19:47;;;;;;;4.00;3.70;;;36.00;47.80;;;;;;5055101;28;20810;-66
2023/09/25 10:22:26;;;;;;;3.53;3.13;;;35.40;47.20;;;;;;5055064;28;20456;-66
2023/09/25 10:25:14;;;;;;;4.67;4.03;;;36.20;47.30;;;;;;5053675;28;20447;-66
2023/09/25 10:27:43;;;;;;;3.50;3.13;;;36.90;46.90;;;;;;5054080;28;20795;-67
2023/09/25 10:30:15;;;;;;;3.67;3.37;;;37.00;46.80;;;;;;5053181;28;20961;-67
2023/09/25 10:32:49;;;;;;;4.10;3.80;;;38.50;46.50;;;;;;5054253;28;20439;-67
2023/09/25 10:35:40;;;;;;;4.80;3.27;;;39.20;47.50;;;;;;5054483;28;20420;-68
2023/09/25 10:38:41;;;;;;;3.20;2.90;;;39.80;47.10;;;;;;5055040;28;20412;-67
2023/09/25 10:41:07;;;;;;;7.20;6.60;;;39.70;46.70;;;;;;5021332;28;20467;-66
2023/09/25 10:43:34;;;;;;;3.97;3.67;;;40.80;47.10;;;;;;5052395;28;20920;-67
2023/09/25 10:46:01;;;;;;;3.20;2.90;;;41.70;47.70;;;;;;5054020;28;20192;-66
2023/09/25 10:48:28;;;;;;;3.30;3.10;;;41.70;49.50;;;;;;5053629;28;20432;-67
2023/09/25 10:50:54;;;;;;;3.77;3.47;;;41.10;48.80;;;;;;5053910;28;20831;-67
2023/09/25 10:53:21;;;;;;;3.63;3.33;;;40.80;48.40;;;;;;5054379;28;20424;-67
2023/09/25 10:55:48;;;;;;;3.80;3.40;;;40.50;47.50;;;;;;5054603;28;20450;-67
2023/09/25 10:58:14;;;;;;;3.57;3.27;;;39.90;47.80;;;;;;5054680;28;20420;-66
2023/09/25 11:00:42;;;;;;;3.50;3.20;;;40.60;47.00;;;;;;5054459;28;20448;-66
2023/09/25 11:03:08;;;;;;;3.03;2.80;;;40.60;46.50;;;;;;5053312;28;20909;-66
2023/09/25 11:05:35;;;;;;;4.63;2.83;;;40.70;46.10;;;;;;5054244;28;20430;-66
2023/09/25 11:08:05;;;;;;;4.03;3.73;;;41.10;45.40;;;;;;5054462;28;20909;-65
2023/09/25 11:10:32;;;;;;;3.17;2.97;;;40.90;45.40;;;;;;5070927;22;20858;-65
2023/09/25 11:12:59;;;;;;;3.60;3.30;;;41.10;44.20;;;;;;5014025;28;20839;-65
2023/09/25 11:15:25;;;;;;;3.43;3.10;;;40.80;42.90;;;;;;5014546;28;20418;-65
2023/09/25 11:17:51;;;;;;;3.90;3.50;;;41.10;42.90;;;;;;5012038;28;20438;-64
2023/09/25 11:20:22;;;;;;;3.77;3.00;;;40.70;42.50;;;;;;5009492;28;20492;-66
2023/09/25 11:22:49;;;;;;;5.53;3.20;;;40.80;42.20;;;;;;5013698;28;20171;-65
2023/09/25 11:25:16;;;;;;;3.47;3.10;;;40.60;41.80;;;;;;5011831;28;20831;-65
2023/09/25 11:27:52;;;;;;;2.97;2.77;;;41.80;41.10;;;;;;5014364;28;20425;-65
2023/09/25 11:30:18;;;;;;;5.60;2.97;;;41.50;40.10;;;;;;5014536;28;20501;-65
2023/09/25 11:32:44;;;;;;;3.63;3.33;;;42.50;41.30;;;;;;5012813;28;20438;-65
2023/09/25 11:35:12;;;;;;;3.27;2.97;;;43.30;43.10;;;;;;5014131;28;20221;-65
2023/09/25 11:37:58;;;;;;;3.73;3.33;;;43.50;43.20;;;;;;5014231;28;20167;-65
2023/09/25 11:40:27;;;;;;;3.17;2.90;;;43.20;42.80;;;;;;5011984;28;20430;-65
2023/09/25 11:42:54;;;;;;;3.60;3.07;;;42.60;42.80;;;;;;5013808;28;20418;-65
2023/09/25 11:45:20;;;;;;;3.57;3.37;;;43.00;41.90;;;;;;5014077;28;20417;-66
2023/09/25 11:47:46;;;;;;;3.17;2.87;;;40.90;42.00;;;;;;5013135;28;20828;-65
2023/09/25 11:50:13;;;;;;;4.53;3.20;;;41.90;43.10;;;;;;5012474;28;20234;-65
2023/09/25 11:52:41;;;;;;;5.67;2.90;;;42.50;41.80;;;;;;5000995;28;20425;-65
2023/09/25 11:55:09;;;;;;;4.00;3.70;;;42.70;41.90;;;;;;5010044;28;20564;-65
2023/09/25 11:57:35;;;;;;;4.73;3.27;;;42.90;41.40;;;;;;5005205;28;20521;-65
2023/09/25 12:00:04;;;;;;;3.70;3.40;;;43.30;41.20;;;;;;5013410;28;20476;-65
2023/09/25 12:02:30;;;;;;;4.47;4.03;;;43.60;40.50;;;;;;5013411;28;20214;-65
2023/09/25 12:04:57;;;;;;;3.57;3.27;;;42.60;40.30;;;;;;5013328;28;20451;-65
2023/09/25 12:07:22;;;;;;;3.10;2.90;;;43.50;40.10;;;;;;5013759;28;20422;-65
2023/09/25 12:09:48;;;;;;;4.37;3.50;;;44.30;22.00;;;;;;5013540;28;20793;-65
2023/09/25 12:12:14;;;;;;;3.30;3.10;;;45.50;20.00;;;;;;5012199;28;20552;-65
2023/09/25 12:14:40;;;;;;;2.70;2.60;;;45.40;19.60;;;;;;5012771;28;20175;-65
2023/09/25 12:17:07;;;;;;;4.07;3.70;;;45.70;19.60;;;;;;5013055;28;20531;-65
2023/09/25 12:19:33;;;;;;;2.80;2.60;;;44.60;19.70;;;;;;5012976;28;20906;-65
2023/09/25 12:21:59;;;;;;;3.87;3.60;;;44.70;20.00;;;;;;5012430;28;20452;-65
2023/09/25 12:24:25;;;;;;;3.60;3.30;;;45.90;19.60;;;;;;5010784;28;20429;-65
2023/09/25 12:26:50;;;;;;;3.33;2.90;;;45.00;18.60;;;;;;5009726;28;20425;-66
2023/09/25 12:29:17;;;;;;;3.73;3.53;;;43.00;19.70;;;;;;5009890;28;20190;-65
2023/09/25 12:31:43;;;;;;;3.60;3.40;;;43.90;19.80;;;;;;5012716;28;20187;-64
2023/09/25 12:34:08;;;;;;;4.10;3.03;;;44.10;19.50;;;;;;5012866;28;20410;-65
2023/09/25 12:36:34;;;;;;;3.10;2.30;;;43.40;19.80;;;;;;5013178;28;20210;-64
2023/09/25 12:38:59;;;;;;;4.40;3.00;;;43.50;19.90;;;;;;5012866;28;20254;-65
2023/09/25 12:41:25;;;;;;;7.20;2.67;;;43.50;19.80;;;;;;5012776;28;20201;-64
2023/09/25 12:43:51;;;;;;;3.63;2.40;;;43.40;20.00;;;;;;5010085;28;20277;-65
2023/09/25 12:46:17;;;;;;;4.90;2.50;;;43.90;19.50;;;;;;5011062;28;20715;-65
2023/09/25 12:48:42;;;;;;;2.80;2.60;;;44.20;19.50;;;;;;5012701;28;20178;-65